createdAt,value
2019-01-12T00:02:44.465Z,3.20
2019-01-12T00:07:45.738Z,3.20
2019-01-12T00:12:46.966Z,3.10
2019-01-12T00:17:48.216Z,3.20
2019-01-12T00:22:49.479Z,3.20
2019-01-12T00:27:50.830Z,3.30
2019-01-12T00:32:52.111Z,3.30
2019-01-12T00:37:53.349Z,3.30
2019-01-12T00:42:54.597Z,3.30
2019-01-12T00:47:55.840Z,3.40
2019-01-12T00:52:57.179Z,3.30
2019-01-12T00:57:58.418Z,3.40
2019-01-12T01:02:59.752Z,3.40
2019-01-12T01:08:01.195Z,3.40
2019-01-12T01:13:02.549Z,3.50
2019-01-12T01:18:04.121Z,3.50
2019-01-12T01:23:05.417Z,3.50
2019-01-12T01:28:06.898Z,3.40
2019-01-12T01:33:08.232Z,3.40
2019-01-12T01:38:09.515Z,3.50
2019-01-12T01:43:10.791Z,3.50
2019-01-12T01:48:12.040Z,3.40
2019-01-12T01:53:13.297Z,3.50
2019-01-12T01:58:14.671Z,3.50
2019-01-12T02:03:15.937Z,3.40
2019-01-12T02:08:17.174Z,3.40
2019-01-12T02:13:18.408Z,3.40
2019-01-12T02:18:19.656Z,3.40
2019-01-12T02:23:20.908Z,3.40
2019-01-12T02:28:22.172Z,3.40
2019-01-12T02:33:23.485Z,3.50
2019-01-12T02:38:24.725Z,3.60
2019-01-12T02:43:25.957Z,3.60
2019-01-12T02:48:27.215Z,3.60
2019-01-12T02:53:28.532Z,3.70
2019-01-12T02:58:29.872Z,3.80
2019-01-12T03:03:31.181Z,3.80
2019-01-12T03:08:32.463Z,3.90
2019-01-12T03:13:33.846Z,3.90
2019-01-12T03:18:35.367Z,3.90
2019-01-12T03:23:36.602Z,4.00
2019-01-12T03:28:37.859Z,4.10
2019-01-12T03:33:39.112Z,4.10
2019-01-12T03:38:40.373Z,4.10
2019-01-12T03:43:41.614Z,4.10
2019-01-12T03:48:42.857Z,4.20
2019-01-12T03:53:44.091Z,4.30
2019-01-12T03:58:45.853Z,4.50
2019-01-12T04:03:47.101Z,4.60
2019-01-12T04:08:48.339Z,4.70
2019-01-12T04:13:49.613Z,4.70
2019-01-12T04:18:50.857Z,4.70
2019-01-12T04:23:52.123Z,4.70
2019-01-12T04:28:53.368Z,4.70
2019-01-12T04:33:54.747Z,4.50
2019-01-12T04:38:56.019Z,4.40
2019-01-12T04:43:57.362Z,4.40
2019-01-12T04:48:58.603Z,4.30
2019-01-12T04:53:59.857Z,4.30
2019-01-12T04:59:01.584Z,4.50
2019-01-12T05:04:03.343Z,4.70
2019-01-12T05:09:06.502Z,4.90
2019-01-12T05:14:07.764Z,5.00
2019-01-12T05:19:09.020Z,5.10
2019-01-12T05:24:10.285Z,5.10
2019-01-12T05:29:11.541Z,5.10
2019-01-12T05:34:12.771Z,5.10
2019-01-12T05:39:14.023Z,5.10
2019-01-12T05:44:15.250Z,5.10
2019-01-12T05:49:16.498Z,5.10
2019-01-12T05:54:17.741Z,5.10
2019-01-12T05:59:18.988Z,5.10
2019-01-12T06:04:20.238Z,5.00
2019-01-12T06:09:21.492Z,5.00
2019-01-12T06:14:22.724Z,5.00
2019-01-12T06:19:24.000Z,4.90
2019-01-12T06:24:25.245Z,4.80
2019-01-12T06:29:26.504Z,4.80
2019-01-12T06:34:27.743Z,4.70
2019-01-12T06:39:28.993Z,4.70
2019-01-12T06:44:30.225Z,4.70
2019-01-12T06:49:31.463Z,4.70
2019-01-12T06:54:32.819Z,4.60
2019-01-12T06:59:34.332Z,4.60
2019-01-12T07:04:35.653Z,4.60
2019-01-12T07:09:36.892Z,4.50
2019-01-12T07:14:38.163Z,4.40
2019-01-12T07:19:39.409Z,4.40
2019-01-12T07:24:40.654Z,4.30
2019-01-12T07:29:41.898Z,4.30
2019-01-12T07:34:43.143Z,4.30
2019-01-12T07:39:44.380Z,4.30
2019-01-12T07:44:45.647Z,4.40
2019-01-12T07:49:46.912Z,4.50
2019-01-12T07:54:48.181Z,4.60
2019-01-12T07:59:49.426Z,4.70
2019-01-12T08:04:50.675Z,4.80
2019-01-12T08:09:51.928Z,4.90
2019-01-12T08:14:53.194Z,5.00
2019-01-12T08:19:54.452Z,5.10
2019-01-12T08:24:55.703Z,5.10
2019-01-12T08:29:56.932Z,5.20
2019-01-12T08:34:58.195Z,5.30
2019-01-12T08:39:59.538Z,5.40
2019-01-12T08:45:00.823Z,5.30
2019-01-12T08:50:07.198Z,5.40
2019-01-12T08:55:09.953Z,5.50
2019-01-12T09:00:16.894Z,5.50
2019-01-12T09:05:18.641Z,5.70
2019-01-12T09:10:20.058Z,5.80
2019-01-12T09:15:21.370Z,5.80
2019-01-12T09:20:22.844Z,5.80
2019-01-12T09:25:24.140Z,5.90
2019-01-12T09:30:25.471Z,6.00
2019-01-12T09:35:26.734Z,6.00
2019-01-12T09:40:27.968Z,5.90
2019-01-12T09:45:29.235Z,5.90
2019-01-12T09:50:30.453Z,5.90
2019-01-12T09:55:31.702Z,5.90
2019-01-12T10:00:33.000Z,6.10
2019-01-12T10:05:34.247Z,6.00
2019-01-12T10:10:35.517Z,5.90
2019-01-12T10:15:36.737Z,5.90
2019-01-12T10:20:37.998Z,5.90
2019-01-12T10:25:39.213Z,5.90
2019-01-12T10:30:40.506Z,5.90
2019-01-12T10:35:41.821Z,5.90
2019-01-12T10:40:43.228Z,5.90
2019-01-12T10:45:44.609Z,5.90
2019-01-12T10:50:45.835Z,5.90
2019-01-12T10:55:47.196Z,5.80
2019-01-12T11:00:48.447Z,5.70
2019-01-12T11:05:49.826Z,5.80
2019-01-12T11:10:51.092Z,5.80
2019-01-12T11:15:52.477Z,5.80
2019-01-12T11:20:53.945Z,5.60
2019-01-12T11:25:55.194Z,5.40
2019-01-12T11:30:56.437Z,5.30
2019-01-12T11:35:57.805Z,5.30
2019-01-12T11:40:59.062Z,5.50
2019-01-12T11:46:00.299Z,5.70
2019-01-12T11:51:04.481Z,5.90
2019-01-12T11:56:05.979Z,5.80
2019-01-12T12:01:07.338Z,5.80
2019-01-12T12:06:08.725Z,5.80
2019-01-12T12:11:10.101Z,5.80
2019-01-12T12:16:11.559Z,5.80
2019-01-12T12:21:12.906Z,5.90
2019-01-12T12:26:14.147Z,5.90
2019-01-12T12:31:15.418Z,5.80
2019-01-12T12:36:16.677Z,5.70
2019-01-12T12:41:17.957Z,5.80
2019-01-12T12:46:19.329Z,5.80
2019-01-12T12:51:20.746Z,5.80
2019-01-12T12:56:22.137Z,5.80
2019-01-12T13:01:23.500Z,5.80
2019-01-12T13:06:25.009Z,5.80
2019-01-12T13:11:26.375Z,5.80
2019-01-12T13:16:27.625Z,5.70
2019-01-12T13:21:28.905Z,5.80
2019-01-12T13:26:30.133Z,5.80
2019-01-12T13:31:32.347Z,5.70
2019-01-12T13:36:33.600Z,5.80
2019-01-12T13:41:34.856Z,5.80
2019-01-12T13:46:37.099Z,5.80
2019-01-12T13:51:38.565Z,5.70
2019-01-12T13:56:39.843Z,5.70
2019-01-12T14:01:41.084Z,5.70
2019-01-12T14:06:42.342Z,5.60
2019-01-12T14:11:43.568Z,5.60
2019-01-12T14:16:44.855Z,5.60
2019-01-12T14:21:46.229Z,5.60
2019-01-12T14:26:47.487Z,5.70
2019-01-12T14:31:48.753Z,5.70
2019-01-12T14:36:50.034Z,5.70
2019-01-12T14:41:51.273Z,5.70
2019-01-12T14:46:52.532Z,5.60
2019-01-12T14:51:53.981Z,5.60
2019-01-12T14:56:55.256Z,5.60
2019-01-12T15:01:57.453Z,5.50
2019-01-12T15:06:58.847Z,5.50
2019-01-12T15:12:00.097Z,5.40
2019-01-12T15:17:01.347Z,5.30
2019-01-12T15:22:02.987Z,5.30
2019-01-12T15:27:04.368Z,5.30
2019-01-12T15:32:05.633Z,5.20
2019-01-12T15:37:06.892Z,5.30
2019-01-12T15:42:08.151Z,5.30
2019-01-12T15:47:09.412Z,5.30
2019-01-12T15:52:10.671Z,5.30
2019-01-12T15:57:12.025Z,5.20
2019-01-12T16:02:13.289Z,5.30
2019-01-12T16:07:14.545Z,5.30
2019-01-12T16:12:15.824Z,5.30
2019-01-12T16:17:17.078Z,5.30
2019-01-12T16:22:18.342Z,5.30
2019-01-12T16:27:19.625Z,5.30
2019-01-12T16:32:20.885Z,5.30
2019-01-12T16:37:22.125Z,5.30
2019-01-12T16:42:23.386Z,5.30
2019-01-12T16:47:24.642Z,5.30
2019-01-12T16:52:25.931Z,5.30
2019-01-12T16:57:27.290Z,5.20
2019-01-12T17:02:28.505Z,5.20
2019-01-12T17:07:29.783Z,5.20
2019-01-12T17:12:31.015Z,5.20
2019-01-12T17:17:32.286Z,5.20
2019-01-12T17:22:33.542Z,5.20
2019-01-12T17:27:34.789Z,5.10
2019-01-12T17:32:36.185Z,5.10
2019-01-12T17:37:37.436Z,5.10
2019-01-12T17:42:38.692Z,5.10
2019-01-12T17:47:40.038Z,5.00
2019-01-12T17:52:41.401Z,5.10
2019-01-12T17:57:42.848Z,5.00
2019-01-12T18:02:44.235Z,5.00
2019-01-12T18:07:45.600Z,5.00
2019-01-12T18:12:46.951Z,5.00
2019-01-12T18:17:48.208Z,5.00
2019-01-12T18:22:49.456Z,5.00
2019-01-12T18:27:50.720Z,5.00
2019-01-12T18:32:52.091Z,5.10
2019-01-12T18:37:53.460Z,5.10
2019-01-12T18:42:54.901Z,5.10
2019-01-12T18:47:56.159Z,5.00
2019-01-12T18:52:57.407Z,5.10
2019-01-12T18:57:58.782Z,5.10
2019-01-12T19:03:00.027Z,5.10
2019-01-12T19:08:01.586Z,5.10
2019-01-12T19:13:03.246Z,5.10
2019-01-12T19:18:04.625Z,5.10
2019-01-12T19:23:05.980Z,5.10
2019-01-12T19:28:07.246Z,5.20
2019-01-12T19:33:08.612Z,5.20
2019-01-12T19:38:09.865Z,5.20
2019-01-12T19:43:11.109Z,5.20
2019-01-12T19:48:12.360Z,5.20
2019-01-12T19:53:13.646Z,5.20
2019-01-12T19:58:14.897Z,5.30
2019-01-12T20:03:16.181Z,5.20
2019-01-12T20:08:17.553Z,5.20
2019-01-12T20:13:18.818Z,5.30
2019-01-12T20:18:20.068Z,5.30
2019-01-12T20:23:21.375Z,5.30
2019-01-12T20:28:22.705Z,5.30
2019-01-12T20:33:35.680Z,5.40
2019-01-12T20:38:48.713Z,5.40
2019-01-12T20:44:16.869Z,5.30
2019-01-12T20:49:29.842Z,5.30
2019-01-12T20:54:57.607Z,5.30
2019-01-12T21:00:21.303Z,5.30
2019-01-12T21:05:45.837Z,5.40
2019-01-12T21:11:04.657Z,5.40
2019-01-12T21:16:14.227Z,5.40
2019-01-12T21:21:15.478Z,5.40
2019-01-12T21:26:16.714Z,5.40
2019-01-12T21:31:17.982Z,5.50
2019-01-12T21:36:19.363Z,5.50
2019-01-12T21:41:20.629Z,5.50
2019-01-12T21:46:21.957Z,5.50
2019-01-12T21:51:23.242Z,5.50
2019-01-12T21:56:24.538Z,5.50
2019-01-12T22:01:25.832Z,5.60
2019-01-12T22:06:27.096Z,5.80
2019-01-12T22:11:28.358Z,6.10
2019-01-12T22:16:29.718Z,6.10
2019-01-12T22:21:30.998Z,6.10
2019-01-12T22:26:32.451Z,6.10
2019-01-12T22:31:33.781Z,6.10
2019-01-12T22:36:35.120Z,6.00
2019-01-12T22:41:36.589Z,5.80
2019-01-12T22:46:37.855Z,5.70
2019-01-12T22:51:39.113Z,5.70
2019-01-12T22:56:40.387Z,5.70
2019-01-12T23:01:42.946Z,5.80
2019-01-12T23:06:44.211Z,5.90
2019-01-12T23:11:45.663Z,6.10
2019-01-12T23:16:47.014Z,6.10
2019-01-12T23:21:48.286Z,6.00
2019-01-12T23:26:49.659Z,5.90
2019-01-12T23:31:51.222Z,5.80
2019-01-12T23:36:52.588Z,5.80
2019-01-12T23:41:53.856Z,5.80
2019-01-12T23:46:55.131Z,5.80
2019-01-12T23:51:56.499Z,5.80
2019-01-12T23:56:57.756Z,5.80
